Time;durP1;ratioP1;P1;durP2;ratioP2;P2;SDS_P1;SDS_P2;PMS_P1;PMS_P2;Temp;Humidity;BMP_temperature;BMP_pressure;BME280_temperature;BME280_humidity;BME280_pressure;Samples;Min_cycle;Max_cycle;Signal;HPM_P1;HPM_P2
2022/07/07 00:01:53;;;;;;;9.82;7.57;;;;;;;17.63;75.20;101964.19;5021879;28;20029;-69
2022/07/07 00:04:18;;;;;;;9.90;7.80;;;;;;;17.52;76.16;101958.16;5021445;28;20342;-66
2022/07/07 00:06:44;;;;;;;9.77;7.75;;;;;;;17.61;75.87;101950.41;5024050;28;20101;-66
2022/07/07 00:09:09;;;;;;;10.45;8.35;;;;;;;17.57;75.81;101928.03;5024993;28;20454;-66
2022/07/07 00:11:35;;;;;;;9.43;7.78;;;;;;;17.56;75.67;101931.66;5010972;28;20449;-66
2022/07/07 00:14:01;;;;;;;10.38;8.20;;;;;;;17.62;75.72;101933.69;5019038;28;20022;-66
2022/07/07 00:16:27;;;;;;;9.10;7.30;;;;;;;17.66;75.27;101927.16;5013822;28;20029;-66
2022/07/07 00:18:52;;;;;;;9.50;7.47;;;;;;;17.57;75.80;101922.81;5024317;28;20033;-66
2022/07/07 00:21:18;;;;;;;9.63;7.28;;;;;;;17.62;76.07;101920.56;5021908;28;20037;-66
2022/07/07 00:23:44;;;;;;;9.90;7.28;;;;;;;17.63;75.77;101916.97;5024538;28;20735;-66
2022/07/07 00:26:09;;;;;;;9.63;7.53;;;;;;;17.63;76.30;101922.22;5022948;28;20119;-66
2022/07/07 00:28:35;;;;;;;10.10;8.00;;;;;;;17.62;76.33;101915.31;5022400;28;20083;-65
2022/07/07 00:31:00;;;;;;;10.60;7.80;;;;;;;17.60;76.46;101917.25;5024743;28;20037;-66
2022/07/07 00:33:27;;;;;;;9.45;7.20;;;;;;;17.55;76.89;101903.72;5007975;28;20043;-66
2022/07/07 00:35:52;;;;;;;11.65;7.45;;;;;;;17.60;77.41;101912.00;5016244;28;20059;-66
2022/07/07 00:38:18;;;;;;;9.05;7.47;;;;;;;17.67;76.67;101905.22;5020698;28;20504;-66
2022/07/07 00:40:49;;;;;;;9.35;7.10;;;;;;;17.75;76.02;101902.72;5027077;28;20035;-66
2022/07/07 00:43:14;;;;;;;9.98;7.35;;;;;;;17.71;76.87;101890.81;5024988;28;20025;-65
2022/07/07 00:45:40;;;;;;;11.60;7.50;;;;;;;17.73;76.86;101894.19;5016579;28;20389;-66
2022/07/07 00:48:07;;;;;;;10.25;7.60;;;;;;;17.69;77.21;101890.16;5026986;28;20406;-66
2022/07/07 00:50:32;;;;;;;11.77;7.53;;;;;;;17.74;76.82;101883.53;5021282;28;20029;-66
2022/07/07 00:52:57;;;;;;;10.43;7.30;;;;;;;17.75;76.71;101889.59;5020933;28;20036;-67
2022/07/07 00:55:23;;;;;;;10.18;7.50;;;;;;;17.76;77.35;101896.50;5022637;28;20022;-66
2022/07/07 00:57:48;;;;;;;9.77;7.25;;;;;;;17.78;77.11;101894.56;5018772;28;20030;-65
2022/07/07 01:00:15;;;;;;;11.35;7.60;;;;;;;17.78;76.80;101889.31;5019731;28;20025;-66
2022/07/07 01:02:44;;;;;;;9.52;7.07;;;;;;;17.82;76.61;101890.66;5008447;28;20051;-66
2022/07/07 01:05:10;;;;;;;;;;;;;;;17.97;75.13;101883.94;5022835;28;20033;-66
2022/07/07 01:07:37;;;;;;;10.25;7.25;;;;;;;17.77;77.30;101893.72;5008652;28;19936;-65
2022/07/07 01:10:05;;;;;;;10.15;7.10;;;;;;;17.83;77.10;101892.31;5009265;28;20034;-66
2022/07/07 01:12:40;;;;;;;9.35;7.03;;;;;;;17.87;76.46;101883.19;5024625;28;20362;-66
2022/07/07 01:15:09;;;;;;;11.38;7.18;;;;;;;17.80;77.38;101876.88;5028901;28;20098;-66
2022/07/07 01:17:34;;;;;;;10.90;7.35;;;;;;;17.78;77.35;101874.41;5012956;28;20406;-65
2022/07/07 01:20:02;;;;;;;10.20;7.20;;;;;;;17.79;77.71;101883.09;5027047;28;20040;-66
2022/07/07 01:22:31;;;;;;;9.40;6.93;;;;;;;17.80;77.86;101874.25;5019310;28;20045;-66
2022/07/07 01:24:57;;;;;;;10.40;6.95;;;;;;;17.76;78.55;101871.06;5027795;28;20495;-66
2022/07/07 01:27:22;;;;;;;10.40;6.97;;;;;;;17.80;78.45;101863.75;5024120;28;20033;-64
2022/07/07 01:29:53;;;;;;;9.38;6.60;;;;;;;17.81;78.39;101868.03;5013424;28;20120;-65
2022/07/07 01:32:20;;;;;;;10.32;6.70;;;;;;;17.80;79.45;101865.56;5026703;28;20037;-64
2022/07/07 01:34:48;;;;;;;9.80;6.82;;;;;;;17.72;78.89;101866.25;5015126;28;20021;-64
2022/07/07 01:37:13;;;;;;;7.88;6.40;;;;;;;17.83;79.13;101866.06;5027512;28;20120;-66
2022/07/07 01:39:40;;;;;;;10.32;6.57;;;;;;;17.80;79.73;101863.75;5025749;28;20024;-66
2022/07/07 01:42:06;;;;;;;8.43;6.10;;;;;;;17.78;80.01;101858.66;5028207;28;20076;-64
2022/07/07 01:44:38;;;;;;;8.70;6.50;;;;;;;17.73;80.33;101844.31;5012914;28;20462;-65
2022/07/07 01:47:04;;;;;;;11.52;6.68;;;;;;;17.74;80.71;101861.72;5025437;28;20040;-65
2022/07/07 01:49:31;;;;;;;10.43;5.75;;;;;;;17.71;79.84;101848.84;5021354;28;20437;-64
2022/07/07 01:51:57;;;;;;;9.35;6.47;;;;;;;17.83;79.92;101854.75;5023145;28;20036;-66
2022/07/07 01:54:23;;;;;;;10.18;5.18;;;;;;;17.82;79.46;101843.44;5027431;28;20103;-66
2022/07/07 01:56:48;;;;;;;9.35;4.60;;;;;;;17.78;78.91;101853.41;5021422;28;20112;-65
2022/07/07 01:59:14;;;;;;;8.35;4.28;;;;;;;17.83;78.26;101850.31;5008777;28;20052;-65
2022/07/07 02:01:39;;;;;;;7.72;4.35;;;;;;;17.81;78.72;101847.03;5020681;28;20029;-65
2022/07/07 02:04:05;;;;;;;7.97;4.70;;;;;;;17.76;80.05;101854.50;5012299;28;20591;-66
2022/07/07 02:06:30;;;;;;;7.80;4.75;;;;;;;17.79;80.04;101851.59;5008151;28;20040;-65
2022/07/07 02:08:56;;;;;;;8.55;5.13;;;;;;;17.81;79.83;101844.41;5012117;28;20021;-65
2022/07/07 02:11:21;;;;;;;7.40;4.45;;;;;;;17.80;80.13;101840.13;5022733;28;20128;-65
2022/07/07 02:13:50;;;;;;;9.50;4.88;;;;;;;17.77;79.53;101846.47;5022076;28;20373;-64
2022/07/07 02:16:19;;;;;;;5.63;3.15;;;;;;;17.75;77.16;101834.50;5025949;28;20040;-65
2022/07/07 02:18:46;;;;;;;6.50;3.17;;;;;;;17.78;77.00;101852.59;5014690;28;20097;-72
2022/07/07 02:21:13;;;;;;;5.25;2.55;;;;;;;17.74;75.90;101851.22;5020962;28;20096;-65
2022/07/07 02:23:41;;;;;;;6.53;2.90;;;;;;;17.80;75.32;101850.63;5015059;28;20029;-65
2022/07/07 02:26:07;;;;;;;7.00;2.70;;;;;;;17.69;74.58;101842.94;5019098;28;20030;-65
2022/07/07 02:28:32;;;;;;;6.38;2.35;;;;;;;17.69;73.91;101849.00;5017017;28;20453;-64
2022/07/07 02:30:59;;;;;;;7.43;2.40;;;;;;;17.64;74.23;101855.66;5023779;28;20423;-66
2022/07/07 02:33:25;;;;;;;5.32;2.35;;;;;;;17.56;74.15;101852.94;5014718;28;20063;-66
2022/07/07 02:35:52;;;;;;;4.90;2.28;;;;;;;17.45;75.00;101846.91;5012171;28;20127;-64
2022/07/07 02:38:18;;;;;;;4.68;2.20;;;;;;;17.49;75.05;101869.28;5008636;28;20537;-64
2022/07/07 02:40:43;;;;;;;5.20;2.30;;;;;;;17.37;75.85;101867.78;5019467;28;20155;-65
2022/07/07 02:43:12;;;;;;;5.03;2.20;;;;;;;17.30;77.17;101879.81;5025072;28;20034;-66
2022/07/07 02:45:42;;;;;;;6.50;2.60;;;;;;;17.18;78.06;101867.84;5025236;28;20104;-65
2022/07/07 02:48:09;;;;;;;5.00;2.40;;;;;;;17.03;78.87;101867.47;5018122;28;20026;-64
2022/07/07 02:50:35;;;;;;;6.03;2.50;;;;;;;16.95;79.00;101864.75;5025298;28;20029;-63
2022/07/07 02:53:00;;;;;;;4.40;2.40;;;;;;;17.04;79.28;101863.06;5024810;28;20032;-66
2022/07/07 02:55:25;;;;;;;4.95;2.58;;;;;;;16.92;79.77;101855.38;5021706;28;20029;-64
2022/07/07 02:57:51;;;;;;;4.82;2.80;;;;;;;17.07;78.54;101852.28;5007033;28;20034;-64
2022/07/07 03:00:17;;;;;;;5.45;2.50;;;;;;;16.98;78.69;101860.06;5011173;28;20400;-63
2022/07/07 03:02:43;;;;;;;4.72;2.72;;;;;;;16.87;78.67;101857.59;5015659;28;20091;-64
2022/07/07 03:05:08;;;;;;;6.82;2.40;;;;;;;16.92;78.10;101854.56;5019953;28;20136;-66
2022/07/07 03:07:34;;;;;;;5.80;2.70;;;;;;;16.88;78.04;101858.41;5016321;28;20025;-65
2022/07/07 03:09:59;;;;;;;3.65;2.40;;;;;;;16.85;78.43;101858.69;5024281;28;20377;-65
2022/07/07 03:12:24;;;;;;;4.13;2.28;;;;;;;16.96;78.28;101851.47;5021793;28;20036;-66
2022/07/07 03:14:50;;;;;;;5.22;2.30;;;;;;;16.88;78.42;101854.00;5024296;28;20450;-65
2022/07/07 03:17:15;;;;;;;4.65;2.47;;;;;;;16.87;78.10;101847.13;5024489;28;20481;-65
2022/07/07 03:19:41;;;;;;;3.63;2.03;;;;;;;16.80;78.28;101840.75;5026316;28;20111;-65
2022/07/07 03:22:06;;;;;;;4.68;2.70;;;;;;;16.86;78.55;101845.47;5024866;28;20085;-67
2022/07/07 03:24:31;;;;;;;4.95;2.53;;;;;;;16.91;79.51;101852.88;5025021;28;20029;-66
2022/07/07 03:26:58;;;;;;;5.50;3.10;;;;;;;16.76;80.59;101849.88;5025933;28;20017;-66
2022/07/07 03:29:25;;;;;;;4.88;2.65;;;;;;;16.85;80.90;101854.25;5010883;28;20029;-66
2022/07/07 03:31:50;;;;;;;4.55;2.85;;;;;;;16.73;81.16;101839.69;5024282;28;20116;-65
2022/07/07 03:34:15;;;;;;;6.80;2.95;;;;;;;16.65;81.02;101842.97;5023921;28;20029;-65
2022/07/07 03:36:41;;;;;;;4.70;3.05;;;;;;;16.71;80.76;101826.72;5014794;28;20056;-66
2022/07/07 03:39:06;;;;;;;6.95;2.97;;;;;;;16.57;82.27;101834.16;5007388;28;20097;-66
2022/07/07 03:41:31;;;;;;;5.63;3.10;;;;;;;16.65;82.72;101831.69;5022941;28;20035;-67
2022/07/07 03:43:57;;;;;;;5.95;3.30;;;;;;;16.67;82.49;101834.97;5026058;28;20120;-66
2022/07/07 03:46:22;;;;;;;4.93;3.25;;;;;;;16.64;82.51;101835.25;5020476;28;20094;-65
2022/07/07 03:48:47;;;;;;;5.07;3.45;;;;;;;16.58;83.16;101841.88;5019716;28;20032;-66
2022/07/07 03:51:13;;;;;;;5.57;3.25;;;;;;;16.52;83.86;101841.63;5005754;28;20025;-66
2022/07/07 03:53:39;;;;;;;6.28;3.40;;;;;;;16.45;84.02;101836.91;5014061;28;20397;-67
2022/07/07 03:56:04;;;;;;;7.15;3.38;;;;;;;16.41;84.38;101835.56;5012783;28;20100;-67
2022/07/07 03:58:30;;;;;;;6.38;3.20;;;;;;;16.48;84.26;101835.81;5006577;28;20352;-67
2022/07/07 04:00:55;;;;;;;5.30;3.50;;;;;;;16.36;84.49;101843.00;5010138;28;20579;-66
2022/07/07 04:03:20;;;;;;;6.28;3.67;;;;;;;16.43;84.37;101833.63;5007866;28;20101;-67
2022/07/07 04:05:46;;;;;;;5.57;3.78;;;;;;;16.35;85.81;101836.13;5010654;28;20051;-67
2022/07/07 04:08:11;;;;;;;6.07;3.50;;;;;;;16.27;85.96;101833.34;5011232;28;20377;-67
2022/07/07 04:10:36;;;;;;;6.22;3.55;;;;;;;16.28;85.50;101834.16;5005231;28;20105;-65
2022/07/07 04:13:02;;;;;;;5.45;3.53;;;;;;;16.35;85.26;101841.34;5012440;28;20045;-65
2022/07/07 04:15:27;;;;;;;5.57;3.15;;;;;;;16.22;85.06;101835.53;5019297;28;20033;-66
2022/07/07 04:17:53;;;;;;;6.75;3.33;;;;;;;16.16;85.13;101825.63;5022444;28;20032;-65
2022/07/07 04:20:18;;;;;;;7.70;3.40;;;;;;;16.29;85.04;101836.66;5015500;28;20041;-66
2022/07/07 04:22:44;;;;;;;8.02;3.20;;;;;;;16.18;86.06;101842.84;5009322;28;20631;-65
2022/07/07 04:25:09;;;;;;;6.40;3.03;;;;;;;16.19;85.89;101822.75;5012853;28;20017;-68
2022/07/07 04:27:34;;;;;;;5.55;2.70;;;;;;;16.23;85.88;101841.59;5005141;28;20422;-68
2022/07/07 04:30:00;;;;;;;5.15;2.55;;;;;;;16.24;85.24;101838.03;5024897;28;20040;-68
2022/07/07 04:32:25;;;;;;;6.80;2.47;;;;;;;16.19;85.58;101846.31;5022568;28;20513;-67
2022/07/07 04:34:51;;;;;;;6.88;2.63;;;;;;;16.18;85.06;101849.88;5019376;28;20041;-66
2022/07/07 04:37:16;;;;;;;7.57;2.63;;;;;;;16.23;85.13;101834.59;5008317;28;20041;-67
2022/07/07 04:39:41;;;;;;;6.97;2.78;;;;;;;16.35;85.06;101853.63;5006108;28;20040;-67
2022/07/07 04:42:07;;;;;;;5.28;2.55;;;;;;;16.37;85.23;101849.88;5008205;28;20030;-67
2022/07/07 04:44:32;;;;;;;7.40;2.53;;;;;;;16.16;85.05;101836.09;5008017;28;20030;-67
2022/07/07 04:46:58;;;;;;;6.30;2.45;;;;;;;16.07;85.59;101852.63;5020160;28;20029;-66
2022/07/07 04:49:23;;;;;;;7.90;2.22;;;;;;;16.02;85.20;101849.59;5019490;28;20032;-72
2022/07/07 04:51:49;;;;;;;8.55;2.40;;;;;;;15.99;85.74;101849.84;5019317;28;20037;-69
2022/07/07 04:54:15;;;;;;;8.73;2.67;;;;;;;16.02;86.26;101870.53;5006165;28;20584;-68
2022/07/07 04:56:40;;;;;;;7.40;2.50;;;;;;;16.00;86.44;101872.44;5018174;28;20540;-67
2022/07/07 04:59:06;;;;;;;7.28;2.30;;;;;;;15.91;86.20;101867.06;5016046;28;20030;-67
2022/07/07 05:01:31;;;;;;;8.52;2.83;;;;;;;15.99;86.05;101876.00;5010696;28;20038;-67
2022/07/07 05:03:56;;;;;;;7.60;2.42;;;;;;;15.93;86.01;101870.34;5006977;28;20022;-67
2022/07/07 05:06:22;;;;;;;7.50;2.38;;;;;;;15.92;86.33;101876.53;5015998;28;20025;-66
2022/07/07 05:08:47;;;;;;;5.97;2.40;;;;;;;15.90;86.16;101883.72;5009332;28;20129;-66
2022/07/07 05:11:13;;;;;;;7.18;2.08;;;;;;;15.92;85.87;101887.00;5024305;28;20551;-66
2022/07/07 05:13:38;;;;;;;6.93;2.10;;;;;;;15.90;86.15;101883.72;5022729;28;20075;-66
2022/07/07 05:16:05;;;;;;;7.63;2.33;;;;;;;15.85;86.50;101885.91;5022617;28;20029;-66
2022/07/07 05:18:31;;;;;;;7.43;2.20;;;;;;;15.89;86.54;101896.94;5014471;28;20379;-67
2022/07/07 05:20:57;;;;;;;6.53;2.38;;;;;;;15.93;86.44;101888.66;5011635;28;20488;-67
2022/07/07 05:23:25;;;;;;;6.93;2.30;;;;;;;15.96;87.09;101894.59;5018565;28;20076;-67
2022/07/07 05:25:51;;;;;;;7.75;2.40;;;;;;;15.85;87.00;101885.91;5013201;28;20370;-66
2022/07/07 05:28:17;;;;;;;6.93;2.50;;;;;;;15.96;87.10;101907.69;5028651;28;20059;-66
2022/07/07 05:30:42;;;;;;;7.32;2.65;;;;;;;15.80;88.35;101914.25;5019261;28;20505;-67
2022/07/07 05:33:07;;;;;;;8.57;2.42;;;;;;;15.71;87.53;101903.75;5023824;28;20065;-68
2022/07/07 05:35:34;;;;;;;7.63;2.10;;;;;;;15.65;88.50;101920.78;5028287;28;20028;-67
2022/07/07 05:38:00;;;;;;;6.15;2.10;;;;;;;15.67;88.14;101924.13;5011402;28;20022;-67
2022/07/07 05:40:26;;;;;;;8.75;2.00;;;;;;;15.51;88.69;101928.97;5010487;28;20064;-68
2022/07/07 05:42:52;;;;;;;6.30;1.98;;;;;;;15.57;88.78;101938.91;5021605;28;20466;-68
2022/07/07 05:45:17;;;;;;;7.47;1.92;;;;;;;15.65;89.14;101936.47;5009572;28;20033;-68
2022/07/07 05:47:43;;;;;;;8.55;1.95;;;;;;;15.58;88.77;101940.53;5013226;28;20395;-68
2022/07/07 05:50:08;;;;;;;7.85;2.20;;;;;;;15.65;88.97;101946.94;5012898;28;20133;-68
2022/07/07 05:52:33;;;;;;;9.13;2.20;;;;;;;15.68;88.53;101946.69;5008463;28;20149;-74
2022/07/07 05:54:59;;;;;;;7.85;1.90;;;;;;;15.68;88.48;101946.69;5020753;28;20513;-67
2022/07/07 05:57:24;;;;;;;7.38;2.00;;;;;;;15.68;88.49;101954.53;5018661;28;20116;-68
2022/07/07 05:59:50;;;;;;;9.23;1.90;;;;;;;15.66;87.77;101946.00;5018868;28;20101;-69
2022/07/07 06:02:15;;;;;;;9.23;2.13;;;;;;;15.64;86.38;101960.97;5015581;28;20389;-68
2022/07/07 06:04:41;;;;;;;9.65;1.80;;;;;;;15.70;86.72;101963.06;5016709;28;20036;-67
2022/07/07 06:07:06;;;;;;;10.02;2.22;;;;;;;15.65;86.36;101963.50;5019747;28;20061;-68
2022/07/07 06:09:32;;;;;;;7.97;1.92;;;;;;;15.69;86.61;101971.88;5010052;28;20033;-68
2022/07/07 06:11:58;;;;;;;12.02;2.28;;;;;;;15.64;85.44;101966.22;5020801;28;20022;-67
2022/07/07 06:14:23;;;;;;;9.65;2.25;;;;;;;15.66;84.80;101977.38;5024156;28;20018;-68
2022/07/07 06:16:48;;;;;;;10.60;2.20;;;;;;;15.62;85.31;101978.56;5030220;28;20025;-67
2022/07/07 06:19:14;;;;;;;9.70;2.35;;;;;;;15.67;84.69;101981.66;5025838;28;20393;-69
2022/07/07 06:21:41;;;;;;;10.77;2.17;;;;;;;15.74;84.77;101992.41;5025068;28;20132;-66
2022/07/07 06:24:06;;;;;;;10.15;2.55;;;;;;;15.68;84.52;101987.72;5013359;28;20030;-67
2022/07/07 06:26:32;;;;;;;9.68;2.38;;;;;;;15.80;84.68;101987.50;5027506;28;20492;-66
2022/07/07 06:28:57;;;;;;;12.93;2.83;;;;;;;15.70;83.52;101998.88;5027297;28;20537;-66
2022/07/07 06:31:23;;;;;;;10.27;2.58;;;;;;;15.60;83.33;101996.19;5019012;28;20022;-68
2022/07/07 06:33:48;;;;;;;10.10;2.40;;;;;;;15.53;83.06;102015.94;5027132;28;20518;-68
2022/07/07 06:36:14;;;;;;;11.02;2.65;;;;;;;15.35;84.73;102013.91;5025367;28;20460;-66
2022/07/07 06:38:40;;;;;;;11.07;2.50;;;;;;;15.17;86.28;102031.09;5027292;28;20039;-66
2022/07/07 06:41:05;;;;;;;8.10;2.00;;;;;;;15.04;86.76;102030.44;5022953;28;20064;-66
2022/07/07 06:43:30;;;;;;;8.45;2.10;;;;;;;14.99;86.77;102028.22;5027147;28;20036;-67
2022/07/07 06:45:56;;;;;;;7.00;1.73;;;;;;;14.99;87.26;102043.88;5027667;28;20025;-67
2022/07/07 06:48:22;;;;;;;5.25;1.60;;;;;;;14.84;86.61;102039.88;5017476;28;20400;-71
2022/07/07 06:50:48;;;;;;;5.63;1.52;;;;;;;14.86;86.62;102025.75;5022596;28;20520;-67
2022/07/07 06:53:13;;;;;;;7.93;1.50;;;;;;;14.91;87.57;102035.00;5010706;28;20061;-65
2022/07/07 06:55:39;;;;;;;5.72;1.40;;;;;;;15.00;88.53;102044.72;5021977;28;20033;-68
2022/07/07 06:58:04;;;;;;;6.20;1.63;;;;;;;15.13;88.61;102035.75;5011907;28;20030;-69
2022/07/07 07:00:30;;;;;;;8.18;1.77;;;;;;;15.16;88.49;102042.50;5026131;28;20021;-68
2022/07/07 07:02:56;;;;;;;8.60;2.10;;;;;;;15.19;88.54;102050.09;5033078;28;20033;-66
2022/07/07 07:05:21;;;;;;;8.50;2.10;;;;;;;15.25;88.78;102051.38;5011190;28;20057;-66
2022/07/07 07:07:47;;;;;;;9.13;2.30;;;;;;;15.32;89.06;102029.84;5021337;28;20110;-65
2022/07/07 07:10:12;;;;;;;9.48;2.25;;;;;;;15.44;88.04;102053.31;5012482;28;20034;-69
2022/07/07 07:12:38;;;;;;;9.80;2.30;;;;;;;15.44;87.56;102056.78;5016608;28;20416;-68
2022/07/07 07:15:05;;;;;;;8.35;2.22;;;;;;;15.51;88.28;102054.47;5017769;28;20025;-68
2022/07/07 07:17:31;;;;;;;9.48;2.50;;;;;;;15.48;85.58;102073.84;5013064;28;20090;-67
2022/07/07 07:19:57;;;;;;;8.85;2.22;;;;;;;15.28;86.88;102062.41;5013502;28;20034;-69
2022/07/07 07:22:22;;;;;;;10.35;2.28;;;;;;;15.34;86.95;102077.59;5020494;28;20050;-67
2022/07/07 07:24:48;;;;;;;7.18;1.90;;;;;;;15.29;86.79;102071.09;5007759;28;20018;-66
2022/07/07 07:27:13;;;;;;;9.15;1.98;;;;;;;15.34;88.69;102084.63;5011667;28;20722;-69
2022/07/07 07:29:38;;;;;;;8.18;2.10;;;;;;;15.41;87.63;102083.97;5011421;28;20029;-66
2022/07/07 07:32:05;;;;;;;6.50;1.77;;;;;;;15.35;86.34;102076.63;5023250;28;20409;-68
2022/07/07 07:34:30;;;;;;;7.20;2.00;;;;;;;15.47;87.39;102079.19;5020937;28;20034;-67
2022/07/07 07:36:55;;;;;;;7.95;1.60;;;;;;;15.51;85.52;102080.63;5010788;28;20026;-68
2022/07/07 07:39:21;;;;;;;7.28;1.70;;;;;;;15.57;86.23;102095.81;5013091;28;20237;-65
2022/07/07 07:41:46;;;;;;;6.05;1.50;;;;;;;15.59;84.62;102083.41;5012408;28;20036;-68
2022/07/07 07:44:11;;;;;;;6.95;1.80;;;;;;;15.66;86.28;102084.63;5015473;28;20474;-67
2022/07/07 07:46:37;;;;;;;6.15;1.85;;;;;;;15.74;85.68;102087.41;5016641;28;20096;-68
2022/07/07 07:49:06;;;;;;;6.53;1.55;;;;;;;15.82;84.80;102084.97;5015283;28;20421;-67
2022/07/07 07:51:32;;;;;;;6.80;1.73;;;;;;;15.74;84.54;102087.41;5010322;28;20120;-68
2022/07/07 07:53:58;;;;;;;8.38;2.05;;;;;;;15.74;84.81;102087.41;5012682;28;20708;-67
2022/07/07 07:56:23;;;;;;;6.22;1.77;;;;;;;15.82;84.35;102090.22;5020836;28;20034;-68
2022/07/07 07:58:49;;;;;;;4.78;1.65;;;;;;;15.89;84.22;102075.69;5007839;28;20144;-68
2022/07/07 08:01:14;;;;;;;7.85;1.73;;;;;;;16.06;83.64;102081.28;5019001;28;20033;-67
2022/07/07 08:03:39;;;;;;;8.32;1.85;;;;;;;16.01;83.67;102072.97;5022197;28;20436;-68
2022/07/07 08:06:05;;;;;;;5.40;1.58;;;;;;;16.14;82.48;102089.28;5025979;28;20057;-68
2022/07/07 08:08:30;;;;;;;6.22;1.63;;;;;;;16.18;81.20;102095.94;5022046;28;20022;-67
2022/07/07 08:10:55;;;;;;;8.25;2.10;;;;;;;16.34;82.58;102085.78;5014226;28;20465;-67
2022/07/07 08:13:22;;;;;;;7.28;1.55;;;;;;;16.45;82.83;102071.75;5021639;28;20501;-66
2022/07/07 08:15:47;;;;;;;7.00;1.80;;;;;;;16.46;81.17;102083.94;5007984;28;20737;-68
2022/07/07 08:18:13;;;;;;;7.70;1.80;;;;;;;16.62;80.96;102099.13;5009256;28;20025;-67
2022/07/07 08:20:38;;;;;;;6.43;1.63;;;;;;;16.65;79.77;102098.88;5008377;28;20121;-67
2022/07/07 08:23:04;;;;;;;4.38;1.50;;;;;;;16.64;78.67;102086.72;5006205;28;20532;-67
2022/07/07 08:25:29;;;;;;;7.68;1.98;;;;;;;16.76;79.03;102101.41;5008353;28;20486;-67
2022/07/07 08:27:54;;;;;;;6.35;1.70;;;;;;;16.72;79.87;102097.38;5008899;28;20030;-67
2022/07/07 08:30:20;;;;;;;7.03;1.90;;;;;;;16.67;80.16;102097.75;5013210;28;20036;-66
2022/07/07 08:32:45;;;;;;;9.23;2.25;;;;;;;16.55;79.13;102100.63;5006436;28;20056;-66
2022/07/07 08:35:12;;;;;;;6.47;1.70;;;;;;;16.57;80.20;102106.53;5009266;28;20057;-68
2022/07/07 08:37:38;;;;;;;8.57;2.15;;;;;;;16.62;81.12;102099.13;5017800;28;20220;-65
2022/07/07 08:40:04;;;;;;;7.78;2.38;;;;;;;16.66;80.91;102116.22;5020605;28;20030;-66
2022/07/07 08:42:29;;;;;;;6.82;1.98;;;;;;;16.61;80.89;102107.94;5006420;28;20025;-66
2022/07/07 08:44:55;;;;;;;5.28;1.70;;;;;;;16.43;79.69;102115.59;5022409;28;20025;-66
2022/07/07 08:47:20;;;;;;;7.82;1.92;;;;;;;16.43;80.16;102134.75;5009590;28;20649;-66
2022/07/07 08:49:45;;;;;;;6.68;1.80;;;;;;;16.34;79.51;102127.69;5007072;28;20541;-66
2022/07/07 08:52:11;;;;;;;5.18;1.20;;;;;;;16.21;78.85;102132.31;5012073;28;20506;-65
2022/07/07 08:54:39;;;;;;;6.68;1.63;;;;;;;16.13;79.48;102140.81;5006775;28;20041;-66
2022/07/07 08:57:06;;;;;;;8.07;1.52;;;;;;;15.91;79.85;102136.53;5016060;28;20029;-66
2022/07/07 08:59:31;;;;;;;7.22;1.48;;;;;;;15.87;80.42;102156.06;5012864;28;20521;-65
2022/07/07 09:02:01;;;;;;;7.53;1.55;;;;;;;15.97;82.63;102152.69;5020806;28;20063;-67
2022/07/07 09:04:27;;;;;;;7.68;1.90;;;;;;;16.09;81.25;102151.66;5021554;28;20446;-66
2022/07/07 09:06:56;;;;;;;6.53;1.45;;;;;;;16.20;79.98;102151.59;5014264;28;20025;-66
2022/07/07 09:09:38;;;;;;;5.75;1.48;;;;;;;16.37;80.14;102153.63;5019274;28;20033;-66
2022/07/07 09:12:04;;;;;;;5.55;1.60;;;;;;;16.39;79.30;102149.06;5030905;28;20542;-66
2022/07/07 09:14:36;;;;;;;6.57;1.30;;;;;;;16.35;77.58;102155.53;5020727;28;20018;-72
2022/07/07 09:17:02;;;;;;;5.50;1.40;;;;;;;16.38;77.26;102155.25;5019756;28;20040;-66
2022/07/07 09:19:28;;;;;;;5.25;1.50;;;;;;;16.49;78.77;102156.16;5016201;28;20022;-67
2022/07/07 09:21:53;;;;;;;5.47;1.20;;;;;;;16.50;77.41;102149.94;5017511;28;20123;-69
2022/07/07 09:24:19;;;;;;;6.47;1.30;;;;;;;16.58;77.44;102168.47;5009874;28;20026;-66
2022/07/07 09:26:54;;;;;;;7.35;1.23;;;;;;;16.59;75.89;102172.75;5016575;28;20056;-67
2022/07/07 09:29:22;;;;;;;4.40;1.10;;;;;;;16.64;75.05;102181.03;5021492;28;20135;-66
2022/07/07 09:31:58;;;;;;;4.78;1.10;;;;;;;16.68;74.47;102179.78;5023418;28;20071;-67
2022/07/07 09:34:26;;;;;;;6.05;1.48;;;;;;;16.71;75.75;102182.19;5010728;28;20422;-66
2022/07/07 09:39:45;;;;;;;6.15;1.65;;;;;;;16.79;75.89;102190.22;5014529;28;20430;-66
2022/07/07 09:42:18;;;;;;;5.70;1.25;;;;;;;16.68;77.03;102206.00;5009634;28;20038;-66
2022/07/07 09:44:50;;;;;;;4.97;1.17;;;;;;;16.42;79.69;102208.22;5019316;28;20033;-66
2022/07/07 09:47:16;;;;;;;5.85;1.20;;;;;;;16.25;80.49;102212.25;5019380;28;20036;-66
2022/07/07 09:49:45;;;;;;;4.38;1.00;;;;;;;16.25;81.35;102204.41;5011892;28;20947;-65
2022/07/07 09:52:15;;;;;;;4.28;1.40;;;;;;;16.29;82.29;102208.44;5018673;28;20477;-66
2022/07/07 09:54:47;;;;;;;6.18;1.33;;;;;;;16.41;82.21;102210.00;5019626;28;20030;-66
2022/07/07 09:57:12;;;;;;;5.10;1.20;;;;;;;16.70;83.48;102207.56;5016888;28;20053;-65
2022/07/07 09:59:38;;;;;;;5.78;1.40;;;;;;;17.04;83.94;102212.53;5013046;28;20462;-65
2022/07/07 10:02:04;;;;;;;4.53;1.40;;;;;;;17.16;82.03;102203.59;5009630;28;20037;-66
2022/07/07 10:04:31;;;;;;;3.83;1.10;;;;;;;17.35;80.13;102212.44;5020872;28;20052;-66
2022/07/07 10:06:59;;;;;;;4.78;1.00;;;;;;;17.46;77.12;102210.53;5019618;28;20065;-67
2022/07/07 10:09:26;;;;;;;4.53;1.30;;;;;;;17.64;76.52;102218.53;5017264;28;20517;-66
2022/07/07 10:11:55;;;;;;;3.33;1.00;;;;;;;17.83;76.97;102207.25;5023141;28;20056;-73
2022/07/07 10:14:30;;;;;;;3.65;0.90;;;;;;;17.76;73.90;102200.91;5027179;28;20017;-71
2022/07/07 10:16:56;;;;;;;4.05;0.93;;;;;;;17.78;73.99;102214.72;5027791;28;20025;-67
2022/07/07 10:19:23;;;;;;;3.83;1.02;;;;;;;17.82;73.84;102205.59;5025874;28;20028;-66
2022/07/07 10:21:51;;;;;;;2.78;0.90;;;;;;;17.78;73.55;102235.72;5025271;28;20045;-66
2022/07/07 10:24:20;;;;;;;3.92;1.10;;;;;;;17.75;75.34;102236.81;5019884;28;20435;-66
2022/07/07 10:27:00;;;;;;;3.88;0.95;;;;;;;17.71;77.15;102237.19;5016989;28;20026;-66
2022/07/07 10:29:49;;;;;;;4.82;1.08;;;;;;;17.68;77.13;102255.84;5022589;28;20705;-67
2022/07/07 10:32:32;;;;;;;5.38;1.50;;;;;;;17.65;77.27;102256.09;5027070;28;20469;-66
2022/07/07 10:35:05;;;;;;;4.75;1.20;;;;;;;17.44;76.61;102257.06;5014894;28;20025;-67
2022/07/07 10:37:46;;;;;;;3.78;1.15;;;;;;;17.41;77.02;102275.66;5026919;28;20021;-67
2022/07/07 10:40:31;;;;;;;3.90;1.10;;;;;;;17.35;77.02;102281.47;5009119;28;20026;-66
2022/07/07 10:43:14;;;;;;;5.15;0.90;;;;;;;17.31;75.92;102280.06;5009210;28;21083;-68
2022/07/07 10:45:48;;;;;;;4.10;1.17;;;;;;;17.37;76.65;102278.69;5025440;28;20048;-67
2022/07/07 10:48:55;;;;;;;3.20;1.00;;;;;;;17.44;76.76;102285.91;5022407;28;20029;-71
2022/07/07 10:51:27;;;;;;;4.60;1.27;;;;;;;17.47;77.28;102284.81;5008203;28;20029;-72
2022/07/07 10:54:03;;;;;;;3.92;1.25;;;;;;;17.45;77.18;102287.56;5024814;28;20128;-67
2022/07/07 10:56:55;;;;;;;2.72;1.10;;;;;;;17.52;77.07;102293.94;5021166;28;20457;-67
2022/07/07 10:59:22;;;;;;;4.07;1.20;;;;;;;17.54;76.91;102293.78;5000444;28;20037;-66
2022/07/07 11:02:28;;;;;;;3.22;1.35;;;;;;;17.78;78.45;102293.47;5022574;28;20021;-64
2022/07/07 11:04:53;;;;;;;3.63;1.30;;;;;;;17.85;76.29;102299.81;5018342;28;20045;-66
2022/07/07 11:07:21;;;;;;;4.20;1.30;;;;;;;17.91;75.43;102293.19;5026803;28;20029;-66
2022/07/07 11:10:04;;;;;;;5.05;1.58;;;;;;;17.95;74.86;102305.91;5029759;28;20032;-67
2022/07/07 11:12:39;;;;;;;5.45;1.67;;;;;;;17.87;74.53;102313.63;5015062;28;20018;-68
2022/07/07 11:15:23;;;;;;;4.95;1.98;;;;;;;17.79;76.40;102313.50;5026420;28;20033;-67
2022/07/07 11:17:53;;;;;;;6.90;2.20;;;;;;;17.43;77.07;102326.22;5021240;28;20053;-67
2022/07/07 11:20:20;;;;;;;8.50;2.22;;;;;;;17.15;78.16;102333.00;5007224;28;20044;-67
2022/07/07 11:22:51;;;;;;;5.60;1.90;;;;;;;17.02;78.16;102344.66;5021132;28;20163;-67
2022/07/07 11:25:20;;;;;;;8.82;1.98;;;;;;;16.82;79.83;102336.69;5023842;28;20720;-66
2022/07/07 11:27:50;;;;;;;7.28;2.13;;;;;;;16.80;80.40;102346.47;5020558;28;20053;-66